Time;durP1;ratioP1;P1;durP2;ratioP2;P2;SDS_P1;SDS_P2;PMS_P1;PMS_P2;Temp;Humidity;BMP_temperature;BMP_pressure;BME280_temperature;BME280_humidity;BME280_pressure;Samples;Min_cycle;Max_cycle;Signal;HPM_P1;HPM_P2
2021/07/20 00:01:29;;;;;;;12.95;8.13;;;;;;;11.92;49.39;95902.16;5044223;28;20037;-79
2021/07/20 00:03:55;;;;;;;11.93;8.15;;;;;;;11.86;49.41;95903.72;4990851;28;20066;-79
2021/07/20 00:06:21;;;;;;;11.75;8.00;;;;;;;11.77;49.36;95897.63;5006734;28;20046;-79
2021/07/20 00:08:46;;;;;;;13.32;8.57;;;;;;;11.69;49.03;95897.69;4994515;28;20514;-79
2021/07/20 00:11:11;;;;;;;10.75;7.82;;;;;;;11.61;50.38;95896.75;4993431;28;20034;-78
2021/07/20 00:13:37;;;;;;;10.43;7.85;;;;;;;11.59;50.09;95900.59;5009579;28;20041;-79
2021/07/20 00:16:02;;;;;;;11.45;8.00;;;;;;;11.61;50.01;95895.91;5014682;28;20026;-79
2021/07/20 00:18:29;;;;;;;11.95;7.88;;;;;;;11.56;49.03;95896.44;5002098;28;20042;-79
2021/07/20 00:20:55;;;;;;;12.77;7.55;;;;;;;11.56;49.35;95901.75;5010963;28;20506;-79
2021/07/20 00:23:20;;;;;;;13.93;7.75;;;;;;;11.55;49.34;95893.94;5011125;28;20045;-79
2021/07/20 00:25:48;;;;;;;10.60;8.02;;;;;;;11.50;49.08;95897.16;4993531;28;20056;-79
2021/07/20 00:28:14;;;;;;;13.65;8.45;;;;;;;11.43;48.77;95897.03;5009600;28;20042;-79
2021/07/20 00:30:40;;;;;;;12.07;7.80;;;;;;;11.35;50.16;95889.91;4992494;28;20549;-79
2021/07/20 00:33:05;;;;;;;11.50;7.78;;;;;;;11.26;50.56;95888.31;5013119;28;20049;-79
2021/07/20 00:35:30;;;;;;;9.88;7.60;;;;;;;11.17;50.75;95894.66;4993474;28;20037;-79
2021/07/20 00:37:56;;;;;;;11.88;7.90;;;;;;;11.12;51.16;95885.38;5026363;28;20030;-79
2021/07/20 00:40:21;;;;;;;11.98;8.23;;;;;;;11.11;48.50;95889.03;5010255;28;20034;-79
2021/07/20 00:42:47;;;;;;;10.75;7.70;;;;;;;11.00;46.56;95892.06;5002811;28;20042;-79
2021/07/20 00:45:14;;;;;;;10.85;7.32;;;;;;;10.84;50.19;95883.16;5009713;28;20072;-79
2021/07/20 00:47:39;;;;;;;10.13;6.97;;;;;;;10.80;51.73;95883.66;4993291;28;20442;-79
2021/07/20 00:50:07;;;;;;;9.98;7.13;;;;;;;10.83;50.28;95885.97;5009667;28;20065;-79
2021/07/20 00:52:32;;;;;;;9.93;7.15;;;;;;;10.82;49.33;95887.84;4994723;28;20104;-79
2021/07/20 00:54:58;;;;;;;10.65;7.18;;;;;;;10.77;49.40;95887.50;5008503;28;20406;-79
2021/07/20 00:57:23;;;;;;;11.45;7.32;;;;;;;10.77;50.28;95894.69;5009512;28;20029;-79
2021/07/20 00:59:48;;;;;;;10.88;7.38;;;;;;;10.70;50.37;95883.88;5008974;28;20120;-79
2021/07/20 01:02:14;;;;;;;10.68;7.30;;;;;;;10.72;51.45;95885.34;5008536;28;20030;-79
2021/07/20 01:04:39;;;;;;;9.77;7.05;;;;;;;10.74;51.00;95888.69;5009149;28;20033;-79
2021/07/20 01:07:05;;;;;;;10.10;7.13;;;;;;;10.76;50.75;95888.50;4986235;28;20408;-79
2021/07/20 01:09:30;;;;;;;11.23;7.57;;;;;;;10.73;51.47;95884.38;4993250;28;20033;-79
2021/07/20 01:11:56;;;;;;;11.73;7.00;;;;;;;10.71;51.43;95877.56;4990618;28;20038;-79
2021/07/20 01:14:22;;;;;;;10.15;7.65;;;;;;;10.72;50.96;95879.22;4989667;28;20352;-79
2021/07/20 01:16:48;;;;;;;11.40;7.45;;;;;;;10.58;51.09;95878.09;4989501;28;20034;-79
2021/07/20 01:19:14;;;;;;;11.45;7.05;;;;;;;10.50;50.88;95878.94;4989242;28;20034;-79
2021/07/20 01:21:39;;;;;;;10.52;7.38;;;;;;;10.36;49.30;95880.47;4956744;28;20041;-79
2021/07/20 01:24:15;;;;;;;10.20;7.43;;;;;;;10.21;48.57;95885.66;4973612;28;20038;-80
2021/07/20 01:26:41;;;;;;;12.75;7.68;;;;;;;10.10;48.64;95882.34;4955955;28;20256;-79
2021/07/20 01:29:07;;;;;;;10.68;7.00;;;;;;;10.12;51.77;95878.69;4973824;28;20045;-80
2021/07/20 01:31:36;;;;;;;8.43;6.47;;;;;;;10.22;51.42;95876.69;4965025;28;20035;-79
2021/07/20 01:34:02;;;;;;;10.70;6.90;;;;;;;10.15;49.87;95873.03;4956680;28;20039;-79
2021/07/20 01:36:28;;;;;;;9.88;6.68;;;;;;;10.13;49.14;95880.38;4989423;28;20073;-79
2021/07/20 01:38:53;;;;;;;9.75;6.88;;;;;;;10.10;52.10;95876.22;4972856;28;20350;-79
2021/07/20 01:41:19;;;;;;;9.00;6.28;;;;;;;10.17;51.73;95877.19;4972911;28;20491;-79
2021/07/20 01:43:48;;;;;;;10.27;6.70;;;;;;;10.21;51.39;95875.84;4965475;28;20100;-79
2021/07/20 01:46:14;;;;;;;8.48;6.00;;;;;;;10.28;51.72;95881.34;4988820;28;20037;-79
2021/07/20 01:48:41;;;;;;;11.60;6.68;;;;;;;10.31;51.28;95880.16;4989124;28;20042;-79
2021/07/20 01:51:07;;;;;;;9.57;6.60;;;;;;;10.35;51.08;95884.16;4956472;28;20038;-79
2021/07/20 01:53:32;;;;;;;9.07;6.22;;;;;;;10.42;51.13;95881.63;4988899;28;20033;-79
2021/07/20 01:56:02;;;;;;;8.90;6.22;;;;;;;10.45;50.87;95882.13;4988084;28;20042;-79
2021/07/20 01:58:28;;;;;;;9.35;6.78;;;;;;;10.44;49.54;95883.13;4988281;28;20031;-79
2021/07/20 02:00:54;;;;;;;13.65;6.68;;;;;;;10.45;51.36;95881.28;4988490;28;20468;-79
2021/07/20 02:08:49;;;;;;;9.75;6.47;;;;;;;10.49;50.43;95883.44;4994423;28;20065;-79
2021/07/20 02:11:22;;;;;;;10.23;6.43;;;;;;;10.47;51.44;95882.78;4991845;28;20458;-79
2021/07/20 02:13:52;;;;;;;11.23;7.20;;;;;;;10.45;50.76;95881.28;4976690;28;20034;-79
2021/07/20 02:16:18;;;;;;;9.63;6.72;;;;;;;10.43;49.39;95880.63;4992557;28;20463;-79
2021/07/20 02:18:46;;;;;;;9.57;6.22;;;;;;;10.45;50.58;95881.28;4991566;28;20037;-79
2021/07/20 02:21:11;;;;;;;9.63;6.80;;;;;;;10.44;49.76;95885.78;4994067;28;20029;-79
2021/07/20 02:23:37;;;;;;;9.02;6.22;;;;;;;10.43;50.36;95876.13;4985344;28;20084;-79
2021/07/20 02:26:02;;;;;;;10.30;6.38;;;;;;;10.43;51.26;95880.63;5042947;28;20691;-79
2021/07/20 02:28:28;;;;;;;9.40;6.85;;;;;;;10.44;51.28;95866.34;4992561;28;20088;-79
2021/07/20 02:30:53;;;;;;;9.77;6.45;;;;;;;10.45;50.92;95873.31;5007998;28;20034;-79
2021/07/20 02:33:20;;;;;;;9.63;6.85;;;;;;;10.41;51.58;95864.84;5011513;28;20041;-79
2021/07/20 02:35:45;;;;;;;11.35;7.47;;;;;;;10.32;50.05;95868.50;5012437;28;20487;-79
2021/07/20 02:38:11;;;;;;;9.88;6.38;;;;;;;10.20;51.23;95870.72;4977505;28;20030;-79
2021/07/20 02:40:36;;;;;;;10.68;7.28;;;;;;;10.15;51.12;95867.72;4995151;28;20034;-79
2021/07/20 02:43:02;;;;;;;10.43;7.05;;;;;;;10.09;51.07;95869.22;5011198;28;20113;-79
2021/07/20 02:45:29;;;;;;;8.65;6.25;;;;;;;10.06;51.16;95866.88;5010841;28;20082;-79
2021/07/20 02:47:54;;;;;;;9.30;6.20;;;;;;;10.05;51.74;95866.06;4995078;28;20133;-79
2021/07/20 02:50:19;;;;;;;9.90;6.75;;;;;;;10.05;50.43;95867.88;4994730;28;20334;-79
2021/07/20 02:52:46;;;;;;;10.10;6.80;;;;;;;10.03;49.44;95870.69;5011493;28;20078;-81
2021/07/20 02:55:12;;;;;;;8.57;5.60;;;;;;;10.09;50.29;95863.91;5011562;28;20113;-81
2021/07/20 02:57:38;;;;;;;8.20;5.90;;;;;;;10.22;50.18;95871.38;5004552;28;20160;-79
2021/07/20 03:00:07;;;;;;;9.02;5.85;;;;;;;10.26;50.74;95858.56;5011592;28;20308;-79
2021/07/20 03:02:35;;;;;;;9.23;6.63;;;;;;;10.29;50.40;95861.69;5005598;28;20106;-80
2021/07/20 03:05:00;;;;;;;10.70;6.75;;;;;;;10.25;50.87;95860.38;5010655;28;20075;-79
2021/07/20 03:07:25;;;;;;;9.65;6.50;;;;;;;10.25;50.82;95862.19;4994162;28;20050;-79
2021/07/20 03:09:51;;;;;;;11.65;6.93;;;;;;;10.26;50.18;95862.03;5011215;28;20557;-79
2021/07/20 03:12:16;;;;;;;9.45;6.38;;;;;;;10.24;52.84;95866.72;4983550;28;20141;-79
2021/07/20 03:14:42;;;;;;;7.93;5.88;;;;;;;10.29;52.57;95871.50;4993909;28;20110;-79
2021/07/20 03:17:08;;;;;;;9.30;6.07;;;;;;;10.32;52.61;95865.84;4976100;28;20140;-79
2021/07/20 03:19:33;;;;;;;8.55;6.43;;;;;;;10.30;52.11;95865.22;5009578;28;20168;-79
2021/07/20 03:22:01;;;;;;;9.25;6.43;;;;;;;10.28;52.03;95870.69;4995180;28;20575;-79
2021/07/20 03:24:27;;;;;;;;;;;;;;;10.21;51.53;95872.38;5011442;28;20070;-79
2021/07/20 03:26:53;;;;;;;8.30;5.63;;;;;;;10.22;52.27;95863.38;5044283;28;20006;-79
2021/07/20 03:29:18;;;;;;;10.07;6.35;;;;;;;10.24;50.20;95861.41;5010978;28;20083;-79
2021/07/20 03:31:43;;;;;;;8.85;6.28;;;;;;;10.15;49.80;95868.56;5010296;28;20172;-82
2021/07/20 03:34:09;;;;;;;8.93;6.05;;;;;;;10.04;51.37;95861.72;5009210;28;20111;-79
2021/07/20 03:36:35;;;;;;;9.70;6.45;;;;;;;9.98;51.80;95870.38;4993974;28;20067;-79
2021/07/20 03:39:00;;;;;;;8.63;6.10;;;;;;;9.93;52.59;95859.41;4992313;28;20113;-79
2021/07/20 03:41:27;;;;;;;9.25;6.65;;;;;;;9.94;53.15;95859.25;4977076;28;20082;-79
2021/07/20 03:43:53;;;;;;;8.55;6.28;;;;;;;9.94;53.31;95861.91;5012036;28;20117;-79
2021/07/20 03:46:19;;;;;;;9.57;6.15;;;;;;;9.94;53.48;95861.06;5010487;28;20126;-79
2021/07/20 03:48:44;;;;;;;9.95;5.93;;;;;;;9.89;54.22;95863.41;5011068;28;20074;-79
2021/07/20 03:51:10;;;;;;;10.13;6.00;;;;;;;9.85;53.99;95857.59;5010762;28;20677;-79
2021/07/20 03:53:36;;;;;;;10.13;7.20;;;;;;;9.74;49.61;95856.09;5010621;28;20086;-78
2021/07/20 03:56:02;;;;;;;9.50;6.20;;;;;;;9.75;54.76;95863.06;5011586;28;20164;-79
2021/07/20 03:58:28;;;;;;;9.93;6.70;;;;;;;9.79;55.24;95859.06;4992170;28;20133;-79
2021/07/20 04:00:55;;;;;;;10.75;7.28;;;;;;;9.96;54.02;95859.06;5010527;28;20148;-79
2021/07/20 04:03:21;;;;;;;9.27;6.03;;;;;;;10.05;53.99;95862.53;5008782;28;20504;-79
2021/07/20 04:05:47;;;;;;;9.55;6.45;;;;;;;10.09;51.99;95869.22;4972410;28;20133;-78
2021/07/20 04:08:13;;;;;;;12.13;7.30;;;;;;;10.07;53.25;95872.03;5024688;28;20160;-79
2021/07/20 04:10:39;;;;;;;13.32;7.63;;;;;;;10.07;53.47;95872.03;4992734;28;20131;-79
2021/07/20 04:13:04;;;;;;;13.15;7.95;;;;;;;10.17;53.51;95871.84;4993277;28;20033;-79
2021/07/20 04:15:29;;;;;;;11.85;7.32;;;;;;;10.29;51.56;95872.34;4993070;28;20060;-79
2021/07/20 04:17:55;;;;;;;11.57;7.35;;;;;;;10.48;52.19;95871.13;5009615;28;20131;-79
2021/07/20 04:20:20;;;;;;;12.48;8.15;;;;;;;10.62;51.40;95868.75;4990518;28;20440;-79
2021/07/20 04:22:46;;;;;;;11.07;6.65;;;;;;;10.67;51.86;95865.59;5005818;28;20042;-79
2021/07/20 04:25:12;;;;;;;12.45;7.45;;;;;;;10.68;51.70;95872.56;5024561;28;20044;-79
2021/07/20 04:27:40;;;;;;;11.65;7.38;;;;;;;10.73;51.63;95865.72;4990145;28;20061;-79
2021/07/20 04:30:10;;;;;;;10.43;6.72;;;;;;;10.76;51.31;95869.88;4990052;28;20034;-79
2021/07/20 04:32:41;;;;;;;9.77;6.82;;;;;;;10.79;51.67;95872.19;4990682;28;20032;-79
2021/07/20 04:35:10;;;;;;;13.07;7.78;;;;;;;10.72;52.15;95869.38;5006802;28;20052;-79
2021/07/20 04:37:36;;;;;;;10.63;6.68;;;;;;;10.70;51.91;95870.56;4991053;28;20100;-79
2021/07/20 04:40:01;;;;;;;10.55;6.72;;;;;;;10.75;51.78;95861.03;5036744;28;20136;-79
2021/07/20 04:42:27;;;;;;;10.82;7.28;;;;;;;10.86;52.13;95867.00;5007579;28;20034;-79
2021/07/20 04:44:52;;;;;;;11.07;7.30;;;;;;;10.94;51.03;95863.44;4994185;28;20022;-79
2021/07/20 04:47:20;;;;;;;13.60;6.60;;;;;;;11.03;51.40;95867.75;4990480;28;20351;-79
2021/07/20 04:49:45;;;;;;;9.85;6.82;;;;;;;11.15;51.26;95870.88;5007368;28;20441;-79
2021/07/20 04:52:10;;;;;;;9.10;6.18;;;;;;;11.26;50.39;95861.66;4973851;28;20026;-79
2021/07/20 04:54:36;;;;;;;8.93;5.95;;;;;;;11.31;50.17;95871.78;4990010;28;20037;-79
2021/07/20 04:57:01;;;;;;;9.68;6.70;;;;;;;11.35;50.22;95870.41;4991039;28;20026;-79
2021/07/20 04:59:27;;;;;;;8.85;6.28;;;;;;;11.45;49.64;95876.34;4988754;28;20392;-79
2021/07/20 05:01:52;;;;;;;9.75;6.80;;;;;;;11.60;49.62;95875.59;4971033;28;20123;-79
2021/07/20 05:04:18;;;;;;;11.88;8.13;;;;;;;11.70;49.68;95875.34;4987754;28;20385;-79
2021/07/20 05:06:45;;;;;;;9.48;6.45;;;;;;;11.82;49.17;95881.91;4986951;28;20132;-79
2021/07/20 05:09:10;;;;;;;9.55;6.95;;;;;;;11.96;49.24;95879.44;5001115;28;20133;-79
2021/07/20 05:11:37;;;;;;;11.10;6.45;;;;;;;12.09;48.97;95895.72;4987764;28;20050;-79
2021/07/20 05:14:02;;;;;;;10.07;6.47;;;;;;;12.23;48.69;95890.56;4986226;28;20034;-79
2021/07/20 05:16:28;;;;;;;14.43;7.10;;;;;;;12.36;48.74;95896.13;4990881;28;20545;-79
2021/07/20 05:18:53;;;;;;;10.32;7.38;;;;;;;12.51;48.47;95895.31;5009228;28;20038;-78
2021/07/20 05:21:19;;;;;;;10.18;6.65;;;;;;;12.63;48.44;95893.00;5006972;28;20518;-79
2021/07/20 05:23:44;;;;;;;9.35;6.45;;;;;;;12.77;48.15;95886.00;4990821;28;20042;-79
2021/07/20 05:26:10;;;;;;;10.45;7.18;;;;;;;12.87;48.05;95883.88;5023278;28;20030;-79
2021/07/20 05:28:35;;;;;;;11.48;7.10;;;;;;;12.92;48.00;95884.13;4990739;28;20034;-79
2021/07/20 05:31:01;;;;;;;11.27;7.43;;;;;;;13.11;48.09;95892.63;5005166;28;20495;-79
2021/07/20 05:33:27;;;;;;;11.95;7.68;;;;;;;13.29;47.91;95886.03;5022777;28;20686;-79
2021/07/20 05:36:00;;;;;;;9.93;6.80;;;;;;;13.50;47.44;95884.41;4989077;28;20038;-79
2021/07/20 05:38:26;;;;;;;10.23;7.13;;;;;;;13.75;47.15;95889.38;4970694;28;20041;-79
2021/07/20 05:40:53;;;;;;;12.45;7.40;;;;;;;14.05;46.90;95881.22;5021557;28;20041;-79
2021/07/20 05:43:19;;;;;;;8.50;6.47;;;;;;;14.27;46.66;95883.84;4969443;28;20069;-79
2021/07/20 05:45:44;;;;;;;10.60;7.32;;;;;;;14.53;46.14;95890.41;4985897;28;20077;-79
2021/07/20 05:48:10;;;;;;;9.60;6.95;;;;;;;14.84;45.95;95900.72;4987708;28;20030;-79
2021/07/20 05:50:40;;;;;;;12.80;8.40;;;;;;;15.08;45.55;95898.56;4972816;28;20129;-79
2021/07/20 05:53:06;;;;;;;11.35;7.35;;;;;;;15.31;44.67;95899.25;4990289;28;20029;-79
2021/07/20 05:55:31;;;;;;;11.13;7.40;;;;;;;15.51;44.42;95899.31;4991391;28;20585;-79
2021/07/20 05:57:57;;;;;;;12.55;8.98;;;;;;;15.71;44.03;95903.94;5010431;28;20030;-80
2021/07/20 06:00:25;;;;;;;11.15;7.65;;;;;;;15.84;44.35;95917.38;4993784;28;20422;-79
2021/07/20 06:02:50;;;;;;;13.45;8.55;;;;;;;16.12;43.82;95910.16;5008900;28;20064;-79
2021/07/20 06:05:16;;;;;;;11.73;8.00;;;;;;;16.32;42.74;95912.84;5009079;28;20042;-79
2021/07/20 06:07:42;;;;;;;13.55;8.20;;;;;;;16.50;43.06;95912.25;4991716;28;20045;-79
2021/07/20 06:10:08;;;;;;;14.38;7.65;;;;;;;16.67;41.76;95914.50;4991740;28;20034;-79
2021/07/20 06:12:34;;;;;;;13.10;8.07;;;;;;;17.01;40.17;95909.84;5008657;28;20113;-79
2021/07/20 06:14:59;;;;;;;12.77;8.38;;;;;;;17.01;39.73;95917.94;5014294;28;20038;-80
2021/07/20 06:17:25;;;;;;;10.40;6.65;;;;;;;16.77;39.92;95914.88;5009990;28;20061;-79
2021/07/20 06:19:51;;;;;;;10.27;6.65;;;;;;;16.89;37.88;95919.59;5009818;28;20517;-79
2021/07/20 06:22:16;;;;;;;11.52;6.68;;;;;;;16.90;37.69;95923.94;5007804;28;20053;-79
2021/07/20 06:24:42;;;;;;;10.98;7.30;;;;;;;16.66;38.19;95915.53;5008377;28;20344;-79
2021/07/20 06:27:10;;;;;;;11.10;6.10;;;;;;;17.00;38.30;95918.94;5008666;28;20399;-79
2021/07/20 06:29:35;;;;;;;10.45;6.20;;;;;;;16.95;38.31;95920.59;4972932;28;20117;-80
2021/07/20 06:32:01;;;;;;;12.02;6.45;;;;;;;16.75;39.40;95922.31;5007461;28;20597;-79
2021/07/20 06:34:27;;;;;;;9.93;5.85;;;;;;;16.75;39.59;95926.88;4986873;28;20041;-79
2021/07/20 06:36:53;;;;;;;10.25;6.50;;;;;;;16.84;38.94;95927.47;4992476;28;20030;-79
2021/07/20 06:39:19;;;;;;;12.13;6.03;;;;;;;16.91;38.49;95928.28;4969915;28;20724;-79
2021/07/20 06:41:44;;;;;;;8.43;5.85;;;;;;;16.90;36.91;95934.72;4989300;28;20026;-79
2021/07/20 06:44:09;;;;;;;12.30;6.55;;;;;;;17.00;39.09;95931.56;5028385;28;20398;-80
2021/07/20 06:46:35;;;;;;;8.93;5.97;;;;;;;17.33;37.32;95927.94;4983818;28;20403;-80
2021/07/20 06:49:00;;;;;;;10.85;6.60;;;;;;;17.14;38.10;95937.78;4995797;28;20069;-80
2021/07/20 06:51:28;;;;;;;12.82;6.57;;;;;;;16.64;39.29;95939.94;5012477;28;20604;-80
2021/07/20 06:53:54;;;;;;;10.25;6.20;;;;;;;16.77;38.78;95943.63;4996076;28;20372;-79
2021/07/20 06:56:32;;;;;;;9.25;5.70;;;;;;;17.26;38.58;95941.44;5012386;28;20045;-80
2021/07/20 06:58:57;;;;;;;9.23;6.05;;;;;;;17.32;38.18;95941.63;5009096;28;20447;-80
2021/07/20 07:01:23;;;;;;;9.27;6.20;;;;;;;17.86;35.55;95936.81;5011378;28;20124;-82
2021/07/20 07:04:07;;;;;;;9.50;6.40;;;;;;;17.76;35.45;95939.13;5010503;28;20038;-80
2021/07/20 07:06:33;;;;;;;9.07;5.93;;;;;;;17.97;36.47;95946.06;5010138;28;20088;-80
2021/07/20 07:08:59;;;;;;;7.13;5.03;;;;;;;18.60;35.55;95950.78;4992709;28;20069;-70
2021/07/20 07:11:26;;;;;;;9.18;5.82;;;;;;;18.90;34.74;95947.41;4992893;28;20041;-78
2021/07/20 07:13:51;;;;;;;9.80;6.97;;;;;;;18.96;34.86;95951.88;4992887;28;20605;-79
2021/07/20 07:16:17;;;;;;;10.48;5.97;;;;;;;19.24;34.49;95952.44;5020414;28;20030;-79
2021/07/20 07:18:42;;;;;;;9.38;5.57;;;;;;;19.54;33.40;95952.50;4979962;28;20437;-79
2021/07/20 07:21:08;;;;;;;10.73;7.00;;;;;;;19.66;33.48;95949.03;5008897;28;20498;-79
2021/07/20 07:23:33;;;;;;;12.65;8.25;;;;;;;19.63;33.26;95949.47;5008468;28;20077;-78
2021/07/20 07:25:59;;;;;;;11.32;8.73;;;;;;;19.68;32.96;95955.84;5008960;28;20034;-79
2021/07/20 07:28:25;;;;;;;11.13;7.82;;;;;;;19.64;32.73;95956.53;4992360;28;20062;-80
2021/07/20 07:30:51;;;;;;;11.10;8.18;;;;;;;19.09;33.83;95950.91;4993916;28;20437;-80
2021/07/20 07:33:17;;;;;;;11.60;7.32;;;;;;;19.25;32.85;95949.50;5013677;28;20107;-80
2021/07/20 07:35:42;;;;;;;8.55;6.00;;;;;;;19.35;31.38;95949.00;5009902;28;20033;-80
2021/07/20 07:38:08;;;;;;;10.75;6.55;;;;;;;18.44;31.43;95953.81;5004073;28;20376;-81
2021/07/20 07:40:34;;;;;;;9.93;7.22;;;;;;;18.52;34.16;95952.69;4992951;28;20029;-80
2021/07/20 07:43:00;;;;;;;14.35;6.47;;;;;;;17.98;31.51;95954.97;5023183;28;20095;-80
2021/07/20 07:45:25;;;;;;;12.20;6.40;;;;;;;17.88;32.56;95958.97;5027375;28;20077;-79
2021/07/20 07:47:51;;;;;;;11.18;6.35;;;;;;;17.86;32.07;95966.44;5008736;28;20050;-79
2021/07/20 07:50:17;;;;;;;9.70;6.40;;;;;;;18.40;34.79;95960.69;4993084;28;20087;-79
2021/07/20 07:52:42;;;;;;;8.68;6.07;;;;;;;17.75;33.54;95959.81;5011282;28;20479;-81
2021/07/20 07:55:09;;;;;;;9.50;5.55;;;;;;;18.94;30.43;95954.00;4992982;28;20048;-80
2021/07/20 07:57:34;;;;;;;9.00;5.57;;;;;;;18.99;29.57;95962.22;5013501;28;20032;-80
2021/07/20 08:00:00;;;;;;;11.18;6.47;;;;;;;18.60;32.23;95959.72;5000847;28;20034;-80
2021/07/20 08:02:29;;;;;;;9.40;5.95;;;;;;;17.06;32.67;95956.81;5010088;28;20042;-80
2021/07/20 08:04:54;;;;;;;10.57;5.70;;;;;;;16.77;33.89;95960.56;4991747;28;20029;-79
2021/07/20 08:07:19;;;;;;;10.27;6.03;;;;;;;18.03;33.08;95955.97;4990448;28;20522;-79
2021/07/20 08:09:46;;;;;;;8.10;5.68;;;;;;;18.12;32.44;95944.94;5007156;28;20041;-79
2021/07/20 08:12:11;;;;;;;7.80;5.90;;;;;;;18.39;30.35;95952.81;5009680;28;20069;-79
2021/07/20 08:14:37;;;;;;;10.05;5.78;;;;;;;16.84;34.37;95957.06;5006332;28;20442;-79
2021/07/20 08:17:02;;;;;;;10.13;6.07;;;;;;;17.21;34.25;95960.09;4976478;28;20037;-80
2021/07/20 08:19:31;;;;;;;11.23;5.78;;;;;;;17.54;33.24;95959.13;4989136;28;20034;-78
2021/07/20 08:22:00;;;;;;;9.13;6.20;;;;;;;16.98;35.06;95961.38;4989072;28;23131;-79
2021/07/20 08:24:26;;;;;;;7.70;5.43;;;;;;;17.31;31.13;95956.13;4989336;28;20076;-79
2021/07/20 08:26:54;;;;;;;10.68;6.05;;;;;;;18.18;31.69;95952.13;4988827;28;20046;-80
2021/07/20 08:29:21;;;;;;;8.45;5.80;;;;;;;19.41;28.38;95944.56;4993103;28;20029;-80
2021/07/20 08:31:53;;;;;;;9.95;5.50;;;;;;;19.54;30.31;95949.78;5006211;28;20088;-80
2021/07/20 08:34:19;;;;;;;9.85;5.65;;;;;;;19.39;30.50;95950.19;5005034;28;20068;-80
2021/07/20 08:36:44;;;;;;;8.18;5.80;;;;;;;19.32;30.37;95949.44;4986566;28;20066;-81
2021/07/20 08:39:11;;;;;;;10.73;5.97;;;;;;;17.57;31.99;95957.06;5001935;28;20499;-80
2021/07/20 08:42:19;;;;;;;8.40;5.45;;;;;;;17.18;32.80;95957.81;5008864;28;20426;-79
2021/07/20 08:45:10;;;;;;;9.43;5.60;;;;;;;18.12;32.16;95953.03;5005193;28;20061;-80
2021/07/20 08:48:10;;;;;;;8.15;5.30;;;;;;;19.27;30.52;95951.97;4987018;28;20522;-80
2021/07/20 08:50:40;;;;;;;11.13;5.28;;;;;;;19.89;29.88;95944.75;5003781;28;20041;-79
2021/07/20 08:53:32;;;;;;;8.48;5.70;;;;;;;19.30;28.78;95960.47;5013755;28;20021;-80
2021/07/20 08:55:58;;;;;;;9.05;5.78;;;;;;;20.53;26.91;95962.31;5007259;28;20048;-80
2021/07/20 08:58:31;;;;;;;9.10;5.25;;;;;;;20.45;28.61;95961.59;4993516;28;20109;-80
2021/07/20 09:01:18;;;;;;;8.95;5.50;;;;;;;21.01;25.82;95963.16;5005513;28;20101;-80
2021/07/20 09:03:49;;;;;;;15.73;6.00;;;;;;;20.43;27.35;95958.28;4990620;28;20515;-80
2021/07/20 09:06:44;;;;;;;7.63;5.22;;;;;;;20.45;26.14;95964.31;5008175;28;20730;-80
2021/07/20 09:09:18;;;;;;;10.32;5.85;;;;;;;20.55;25.83;95961.00;5007720;28;20045;-80
2021/07/20 09:11:46;;;;;;;11.13;5.38;;;;;;;20.63;26.27;95973.38;5008270;28;20041;-80
2021/07/20 09:14:14;;;;;;;7.78;5.40;;;;;;;21.32;25.76;95966.56;5005876;28;21236;-80
2021/07/20 09:16:42;;;;;;;7.47;5.18;;;;;;;20.99;26.86;95974.22;5009044;28;20057;-79
2021/07/20 09:19:10;;;;;;;9.80;5.55;;;;;;;21.19;25.73;95972.19;5015609;28;20045;-80
2021/07/20 09:21:39;;;;;;;8.00;5.40;;;;;;;21.08;26.52;95974.66;5001161;28;20476;-80
2021/07/20 09:24:29;;;;;;;8.75;5.82;;;;;;;20.85;26.55;95973.66;5012158;28;20547;-79
2021/07/20 09:27:11;;;;;;;9.32;5.47;;;;;;;20.40;27.19;95975.00;5011789;28;20100;-80
2021/07/20 09:29:38;;;;;;;9.73;5.95;;;;;;;19.94;27.58;95970.03;5004537;28;20065;-81
2021/07/20 09:32:22;;;;;;;10.95;5.80;;;;;;;19.99;27.49;95972.09;5009733;28;20049;-80
2021/07/20 09:35:00;;;;;;;7.82;5.47;;;;;;;20.12;28.33;95967.53;5007365;28;20045;-80
2021/07/20 09:37:28;;;;;;;8.90;5.60;;;;;;;20.35;26.99;95978.41;5006269;28;20036;-80
2021/07/20 09:39:56;;;;;;;;;;;;;;;20.31;27.12;95976.38;5021267;28;20128;-79
2021/07/20 09:42:40;;;;;;;12.65;5.72;;;;;;;20.63;26.01;95972.56;5009661;28;19927;-79
2021/07/20 09:45:25;;;;;;;8.52;5.20;;;;;;;20.61;25.98;95968.19;5006702;28;20033;-78
2021/07/20 09:47:53;;;;;;;10.50;5.38;;;;;;;20.93;25.85;95977.88;5035744;28;20057;-80
2021/07/20 09:50:19;;;;;;;9.95;6.22;;;;;;;20.12;26.89;95970.22;5010497;28;20037;-79
2021/07/20 09:53:04;;;;;;;10.40;6.53;;;;;;;20.10;28.54;95976.66;4982862;28;20081;-80
2021/07/20 09:56:07;;;;;;;12.05;6.28;;;;;;;19.57;29.13;95978.19;5051253;28;20049;-80
2021/07/20 09:58:35;;;;;;;23.25;6.07;;;;;;;20.85;26.08;95975.53;5009380;28;20114;-80
2021/07/20 10:01:00;;;;;;;8.07;5.40;;;;;;;20.98;27.19;95974.47;5003120;28;20030;-74
2021/07/20 10:03:32;;;;;;;10.77;6.00;;;;;;;20.91;26.79;95979.16;5016055;28;20167;-80
2021/07/20 10:06:22;;;;;;;9.60;5.70;;;;;;;20.99;26.66;95976.94;4997709;28;20269;-79
2021/07/20 10:09:02;;;;;;;10.45;6.00;;;;;;;20.91;26.20;95973.75;5014644;28;20060;-80
2021/07/20 10:11:50;;;;;;;9.88;5.90;;;;;;;20.82;25.34;95971.41;5012279;28;20645;-80
2021/07/20 10:14:29;;;;;;;8.95;5.50;;;;;;;20.78;26.25;95964.81;4991759;28;20561;-80
2021/07/20 10:17:10;;;;;;;9.98;5.43;;;;;;;21.21;25.56;95967.38;5014480;28;20091;-80
2021/07/20 10:19:42;;;;;;;11.43;5.90;;;;;;;21.35;26.41;95967.97;5008923;28;20041;-80
2021/07/20 10:22:09;;;;;;;8.35;5.40;;;;;;;21.21;25.91;95970.06;4986977;28;20061;-80
2021/07/20 10:24:35;;;;;;;9.88;5.15;;;;;;;21.04;25.44;95976.19;5002407;28;20030;-80
2021/07/20 10:27:05;;;;;;;9.60;5.80;;;;;;;20.79;27.83;95971.88;4992905;28;20041;-80
2021/07/20 10:29:52;;;;;;;10.65;5.97;;;;;;;21.36;27.59;95967.72;4968407;28;20018;-78
2021/07/20 10:32:23;;;;;;;;;;;;;;;21.86;25.47;95961.91;4982597;28;20504;-79
2021/07/20 10:34:54;;;;;;;12.13;5.57;;;;;;;21.76;24.56;95957.91;4981758;28;19932;-78
2021/07/20 10:37:26;;;;;;;8.52;4.95;;;;;;;22.08;25.73;95950.38;4965836;28;20050;-79
2021/07/20 10:40:06;;;;;;;8.60;4.68;;;;;;;22.91;24.21;95954.44;4965818;28;20417;-80
2021/07/20 10:43:05;;;;;;;8.68;5.32;;;;;;;22.53;25.20;95954.13;4972168;28;20066;-79
2021/07/20 10:45:33;;;;;;;9.57;5.60;;;;;;;22.83;23.64;95952.13;4972842;28;20096;-79
2021/07/20 10:48:32;;;;;;;7.88;5.13;;;;;;;22.65;23.83;95954.03;4976785;28;20047;-79
2021/07/20 10:51:05;;;;;;;8.90;5.57;;;;;;;22.75;23.80;95956.94;5007816;28;20089;-80
2021/07/20 10:53:57;;;;;;;8.93;5.63;;;;;;;22.13;26.17;95955.91;4975683;28;20035;-79
2021/07/20 10:56:27;;;;;;;7.60;5.10;;;;;;;22.94;23.79;95948.47;4988042;28;20074;-79
2021/07/20 10:59:12;;;;;;;8.55;5.30;;;;;;;23.34;23.51;95954.75;5002329;28;20042;-78
2021/07/20 11:02:02;;;;;;;8.55;5.60;;;;;;;23.34;23.41;95945.75;4989505;28;20019;-79
2021/07/20 11:04:36;;;;;;;8.98;5.60;;;;;;;23.10;23.38;95959.53;5010987;28;20422;-79
2021/07/20 11:07:03;;;;;;;10.45;5.38;;;;;;;23.86;22.78;95958.06;4991430;28;20050;-78
2021/07/20 11:09:28;;;;;;;7.63;5.20;;;;;;;22.58;22.89;95951.50;5028234;28;20125;-79
2021/07/20 11:11:55;;;;;;;7.82;5.32;;;;;;;21.95;25.06;95949.63;5017962;28;20096;-79
2021/07/20 11:14:27;;;;;;;7.65;5.30;;;;;;;22.27;23.64;95945.56;5015167;28;20057;-80
2021/07/20 11:16:54;;;;;;;8.80;5.40;;;;;;;21.97;24.32;95946.66;4987722;28;20034;-80
2021/07/20 11:19:20;;;;;;;9.63;5.80;;;;;;;22.30;23.29;95942.38;5022391;28;20029;-80
2021/07/20 11:21:45;;;;;;;9.40;5.47;;;;;;;22.56;24.45;95945.50;5001702;28;20570;-80
2021/07/20 11:24:13;;;;;;;10.95;5.70;;;;;;;22.83;23.67;95941.25;5017055;28;20018;-80
2021/07/20 11:26:38;;;;;;;8.55;5.75;;;;;;;22.87;23.00;95936.97;5023091;28;20139;-81
2021/07/20 11:29:04;;;;;;;10.57;6.18;;;;;;;23.14;23.00;95937.13;4985172;28;20030;-79
2021/07/20 11:31:39;;;;;;;9.90;5.50;;;;;;;23.29;22.62;95939.19;5002276;28;20264;-80
2021/07/20 11:34:13;;;;;;;8.85;5.70;;;;;;;23.30;23.27;95940.03;4999989;28;20254;-80
2021/07/20 11:36:43;;;;;;;7.78;5.47;;;;;;;23.40;23.78;95940.16;5001950;28;20099;-80
2021/07/20 11:39:20;;;;;;;7.00;5.13;;;;;;;23.32;24.00;95937.06;5005745;28;20101;-80
2021/07/20 11:42:18;;;;;;;8.73;5.90;;;;;;;23.50;22.74;95938.63;5015040;28;20546;-79